createdAt,value
2022-11-09T00:00:45.388Z,101189.00
2022-11-09T00:06:47.590Z,101180.00
2022-11-09T00:12:49.664Z,101184.00
2022-11-09T00:18:53.613Z,101194.00
2022-11-09T00:24:55.819Z,101195.00
2022-11-09T00:31:07.114Z,101187.00
2022-11-09T00:37:09.345Z,101181.00
2022-11-09T00:43:14.243Z,101178.00
2022-11-09T00:49:16.433Z,101190.00
2022-11-09T00:55:21.376Z,101183.00
2022-11-09T01:01:23.847Z,101179.00
2022-11-09T01:07:26.441Z,101188.00
2022-11-09T01:13:28.872Z,101188.00
2022-11-09T01:19:30.880Z,101191.00
2022-11-09T01:25:33.078Z,101188.00
2022-11-09T01:31:35.302Z,101196.00
2022-11-09T01:37:37.625Z,101191.00
2022-11-09T01:43:39.755Z,101202.00
2022-11-09T01:49:52.314Z,101197.00
2022-11-09T01:56:00.215Z,101199.00
2022-11-09T02:02:03.051Z,101192.00
2022-11-09T02:08:07.032Z,101201.00
2022-11-09T02:14:13.222Z,101196.00
2022-11-09T02:20:16.109Z,101195.00
2022-11-09T02:26:42.788Z,101196.00
2022-11-09T02:32:46.100Z,101181.00
2022-11-09T02:38:48.619Z,101191.00
2022-11-09T02:44:57.394Z,101175.00
2022-11-09T02:50:59.930Z,101193.00
2022-11-09T02:57:02.387Z,101183.00
2022-11-09T03:03:04.952Z,101182.00
2022-11-09T03:09:12.153Z,101177.00
2022-11-09T03:15:15.149Z,101188.00
2022-11-09T03:21:24.662Z,101191.00
2022-11-09T03:54:27.451Z,101191.00
2022-11-09T04:13:45.302Z,101188.00
2022-11-09T04:33:14.750Z,101193.00
2022-11-09T04:39:16.815Z,101208.00
2022-11-09T04:51:49.309Z,101211.00
2022-11-09T04:57:51.371Z,101213.00
2022-11-09T05:10:24.727Z,101232.00
2022-11-09T05:16:28.207Z,101237.00
2022-11-09T05:22:48.941Z,101242.00
2022-11-09T05:28:53.125Z,101240.00
2022-11-09T05:34:55.194Z,101250.00
2022-11-09T05:40:57.350Z,101249.00
2022-11-09T05:46:59.449Z,101264.00
2022-11-09T05:53:02.190Z,101266.00
2022-11-09T05:59:04.193Z,101256.00
2022-11-09T06:05:07.106Z,101263.00
2022-11-09T06:11:11.749Z,101259.00
2022-11-09T06:17:14.146Z,101248.00
2022-11-09T06:23:16.492Z,101265.00
2022-11-09T06:29:20.100Z,101284.00
2022-11-09T06:35:22.266Z,101282.00
2022-11-09T06:41:24.795Z,101279.00
2022-11-09T06:47:28.294Z,101282.00
2022-11-09T06:53:31.958Z,101276.00
2022-11-09T06:59:35.179Z,101260.00
2022-11-09T07:05:40.877Z,101224.00
2022-11-09T07:11:42.979Z,101281.00
2022-11-09T07:17:45.263Z,101162.00
2022-11-09T07:23:48.666Z,101160.00
2022-11-09T07:29:50.958Z,101197.00
2022-11-09T07:35:53.094Z,101278.00
2022-11-09T07:41:55.939Z,101256.00
2022-11-09T07:48:07.054Z,101250.00
2022-11-09T07:54:10.900Z,101211.00
2022-11-09T08:00:13.543Z,101282.00
2022-11-09T08:06:18.537Z,101275.00
2022-11-09T08:12:21.665Z,101284.00
2022-11-09T08:18:24.467Z,101274.00
2022-11-09T08:24:27.021Z,101262.00
2022-11-09T08:30:29.527Z,101256.00
2022-11-09T08:36:32.887Z,101277.00
2022-11-09T08:42:35.926Z,101299.00
2022-11-09T08:48:38.253Z,101302.00
2022-11-09T08:54:40.479Z,101294.00
2022-11-09T09:00:42.711Z,101300.00
2022-11-09T09:06:45.150Z,101290.00
2022-11-09T09:12:47.548Z,101301.00
2022-11-09T09:18:49.719Z,101291.00
2022-11-09T09:24:52.062Z,101288.00
2022-11-09T09:30:54.662Z,101294.00
2022-11-09T09:36:56.845Z,101280.00
2022-11-09T09:42:59.281Z,101284.00
2022-11-09T09:49:15.677Z,101273.00
2022-11-09T09:55:22.791Z,101270.00
2022-11-09T10:01:35.335Z,101269.00
2022-11-09T10:08:16.314Z,101257.00
2022-11-09T10:14:50.692Z,101248.00
2022-11-09T10:21:04.870Z,101249.00
2022-11-09T10:27:25.662Z,101244.00
2022-11-09T10:33:28.664Z,101233.00
2022-11-09T10:39:40.542Z,101230.00
2022-11-09T10:46:07.727Z,101227.00
2022-11-09T10:52:47.362Z,101223.00
2022-11-09T10:59:33.364Z,101217.00
2022-11-09T11:06:02.191Z,101211.00
2022-11-09T11:12:23.357Z,101195.00
2022-11-09T11:18:48.161Z,101197.00
2022-11-09T11:25:29.560Z,101177.00
2022-11-09T11:31:50.268Z,101063.00
2022-11-09T11:38:32.513Z,101063.00
2022-11-09T11:45:25.573Z,101074.00
2022-11-09T11:52:02.851Z,101178.00
2022-11-09T11:58:42.121Z,101182.00
2022-11-09T12:05:21.321Z,101178.00
2022-11-09T12:11:45.156Z,101164.00
2022-11-09T12:18:36.425Z,101166.00
2022-11-09T12:25:02.926Z,101164.00
2022-11-09T12:31:42.588Z,101164.00
2022-11-09T12:38:24.207Z,101160.00
2022-11-09T12:45:21.726Z,101161.00
2022-11-09T12:51:42.769Z,101163.00
2022-11-09T12:58:04.367Z,101157.00
2022-11-09T13:04:26.059Z,101160.00
2022-11-09T13:10:46.849Z,101156.00
2022-11-09T13:17:26.763Z,101151.00
2022-11-09T13:24:06.868Z,101151.00
2022-11-09T13:30:28.859Z,101153.00
2022-11-09T13:37:30.678Z,101154.00
2022-11-09T13:44:09.179Z,101150.00
2022-11-09T13:50:32.580Z,101155.00
2022-11-09T13:56:53.906Z,101152.00
2022-11-09T14:03:27.051Z,101163.00
2022-11-09T14:10:19.646Z,101151.00
2022-11-09T14:17:04.554Z,101154.00
2022-11-09T14:23:30.277Z,101152.00
2022-11-09T14:29:54.269Z,101141.00
2022-11-09T14:36:15.491Z,101148.00
2022-11-09T14:42:36.453Z,101146.00
2022-11-09T14:48:59.872Z,101144.00
2022-11-09T14:55:23.248Z,101146.00
2022-11-09T15:02:04.119Z,101141.00
2022-11-09T15:08:26.164Z,101148.00
2022-11-09T15:14:55.937Z,101144.00
2022-11-09T15:21:18.274Z,101144.00
2022-11-09T15:27:39.385Z,101145.00
2022-11-09T15:33:59.975Z,101144.00
2022-11-09T15:40:24.792Z,101156.00
2022-11-09T15:46:51.488Z,101159.00
2022-11-09T15:53:13.608Z,101151.00
2022-11-09T15:59:34.847Z,101161.00
2022-11-09T16:05:55.790Z,101167.00
2022-11-09T16:12:16.931Z,101163.00
2022-11-09T16:18:37.609Z,101164.00
2022-11-09T16:24:58.633Z,101174.00
2022-11-09T16:31:40.968Z,101179.00
2022-11-09T16:38:03.501Z,101180.00
2022-11-09T16:44:25.340Z,101177.00
2022-11-09T16:50:47.519Z,101183.00
2022-11-09T16:57:08.315Z,101181.00
2022-11-09T17:03:29.218Z,101178.00
2022-11-09T17:09:49.713Z,101176.00
2022-11-09T17:16:13.344Z,101180.00
2022-11-09T17:22:33.942Z,101180.00
2022-11-09T17:28:54.748Z,101178.00
2022-11-09T17:35:15.708Z,101174.00
2022-11-09T17:41:42.310Z,101181.00
2022-11-09T17:48:04.764Z,101179.00
2022-11-09T17:54:25.527Z,101183.00
2022-11-09T18:00:46.748Z,101179.00
2022-11-09T18:07:07.944Z,101173.00
2022-11-09T18:13:28.774Z,101164.00
2022-11-09T18:19:49.507Z,101173.00
2022-11-09T18:26:13.417Z,101170.00
2022-11-09T18:32:34.300Z,101168.00
2022-11-09T18:38:56.179Z,101176.00
2022-11-09T18:45:17.525Z,101174.00
2022-11-09T18:51:38.071Z,101187.00
2022-11-09T18:57:59.112Z,101182.00
2022-11-09T19:04:20.121Z,101186.00
2022-11-09T19:10:40.804Z,101184.00
2022-11-09T19:17:01.743Z,101195.00
2022-11-09T19:23:22.755Z,101197.00
2022-11-09T19:29:43.432Z,101203.00
2022-11-09T19:36:28.615Z,101199.00
2022-11-09T19:42:45.433Z,101194.00
2022-11-09T19:49:07.913Z,101199.00
2022-11-09T19:55:29.179Z,101202.00
2022-11-09T20:01:49.627Z,101192.00
2022-11-09T20:08:10.351Z,101196.00
2022-11-09T20:14:31.737Z,101200.00
2022-11-09T20:20:54.322Z,101204.00
2022-11-09T20:27:15.134Z,101198.00
2022-11-09T20:33:36.370Z,101195.00
2022-11-09T20:39:57.430Z,101186.00
2022-11-09T20:46:22.015Z,101194.00
2022-11-09T20:52:42.851Z,101185.00
2022-11-09T20:59:04.496Z,101198.00
2022-11-09T21:05:25.239Z,101184.00
2022-11-09T21:12:04.701Z,101192.00
2022-11-09T21:18:26.306Z,101180.00
2022-11-09T21:25:05.748Z,101187.00
2022-11-09T21:31:26.855Z,101181.00
2022-11-09T21:37:47.993Z,101195.00
2022-11-09T21:44:10.796Z,101194.00
2022-11-09T21:50:31.744Z,101197.00
2022-11-09T21:56:53.338Z,101192.00
2022-11-09T22:03:14.304Z,101194.00
2022-11-09T22:09:57.780Z,101193.00
2022-11-09T22:16:16.260Z,101200.00
2022-11-09T22:22:37.523Z,101193.00
2022-11-09T22:28:59.255Z,101200.00
2022-11-09T22:35:20.053Z,101199.00
2022-11-09T22:41:41.194Z,101198.00
2022-11-09T22:48:02.039Z,101201.00
2022-11-09T22:54:22.914Z,101187.00
2022-11-09T23:00:43.917Z,101196.00
2022-11-09T23:07:04.473Z,101184.00
2022-11-09T23:13:25.810Z,101190.00
2022-11-09T23:19:46.906Z,101191.00
2022-11-09T23:26:08.645Z,101186.00
2022-11-09T23:32:29.563Z,101175.00
2022-11-09T23:38:50.724Z,101190.00
2022-11-09T23:45:11.364Z,101192.00
2022-11-09T23:51:32.004Z,101199.00
2022-11-09T23:57:52.929Z,101190.00
